logo tempoitalia

Diretta Meteo Ostrava-Mosnov, Repubblica Cecamartedì 17 maggio ore 05:30

Mappa
Sereno 13 °C Sereno 24 Ore: T.min 9 T.max 24
Ponente Nord Km/h 0 Punto di rugiada: 11 °C Umidità: 87% Visibilità: 10 Km
Il sole sorge alle: 04:58 Il sole tramonta alle: 20:29
17 Maggio 2022 05:30 tempo osservato: Sereno Sereno 13 87 1017 vento: Nord N 0
17 Maggio 2022 05:00 tempo osservato: Sereno Sereno 13 87 1016 vento: Nord E/SE 7.4
17 Maggio 2022 04:30 tempo osservato: Pioggia Pioggia 13 81 1017 vento: Nord S 13
17 Maggio 2022 04:00 tempo osservato: Sereno Sereno 13 81 1017 vento: Nord N 5.5
17 Maggio 2022 03:30 tempo osservato: Pioggia Pioggia 12 93 1017 vento: Nord SO 9.3
17 Maggio 2022 03:00 tempo osservato: Pioggia Pioggia 13 76 1016 vento: Nord S 9.3
17 Maggio 2022 02:30 tempo osservato: Sereno Sereno 12 87 1017 vento: Nord N 5.5
17 Maggio 2022 02:00 tempo osservato: Sereno Sereno 12 81 1017 vento: Nord N 1.8
17 Maggio 2022 01:30 tempo osservato: Sereno Sereno 13 76 1017 vento: Nord N 3.7
17 Maggio 2022 01:00 tempo osservato: Sereno Sereno 12 81 1017 vento: Nord N 3.7
17 Maggio 2022 00:30 tempo osservato: Sereno Sereno 13 76 1017 vento: Nord N 5.5
17 Maggio 2022 00:00 tempo osservato: Sereno Sereno 14 67 1017 vento: Nord N 3.7
16 Maggio 2022 23:30 tempo osservato: Sereno Sereno 13 71 1017 vento: Nord N 1.8
16 Maggio 2022 23:00 tempo osservato: Sereno Sereno 14 67 1018 vento: Nord N 3.7
16 Maggio 2022 22:30 tempo osservato: Sereno Sereno 15 67 1018 vento: Nord N 1.8
16 Maggio 2022 22:00 tempo osservato: Sereno Sereno 17 59 1018 vento: Nord N 3.7
16 Maggio 2022 21:30 tempo osservato: Sereno Sereno 18 51 1018 vento: Nord N 5.5
16 Maggio 2022 21:00 tempo osservato: Sereno Sereno 19 45 1017 vento: Nord N/NE 7.4
16 Maggio 2022 20:30 tempo osservato: Sereno Sereno 19 45 1017 vento: Nord NE 7.4
16 Maggio 2022 20:00 tempo osservato: Sereno Sereno 21 40 1017 vento: Nord E/NE 9.3
16 Maggio 2022 19:30 tempo osservato: Sereno Sereno 22 35 1017 vento: Nord E/NE 11.1
16 Maggio 2022 19:00 tempo osservato: Sereno Sereno 22 35 1017 vento: Nord E/NE 11.1
16 Maggio 2022 18:30 tempo osservato: Sereno Sereno 23 31 1017 vento: Nord E/NE 11.1
16 Maggio 2022 18:00 tempo osservato: Sereno Sereno 24 29 1017 vento: Nord N 5.5
16 Maggio 2022 17:30 tempo osservato: Sereno Sereno 24 27 1017 vento: Nord E/NE 7.4
16 Maggio 2022 17:00 tempo osservato: Sereno Sereno 24 29 1017 vento: Nord E 9.3
16 Maggio 2022 16:30 tempo osservato: Sereno Sereno 24 29 1018 vento: Nord N 5.5
16 Maggio 2022 16:00 tempo osservato: Sereno Sereno 24 33 1018 vento: Nord N 5.5
16 Maggio 2022 15:30 tempo osservato: Sereno Sereno 24 35 1018 vento: Nord N 7.4
16 Maggio 2022 15:00 tempo osservato: Sereno Sereno 24 33 1019 vento: Nord N 3.7
16 Maggio 2022 14:30 tempo osservato: Sereno Sereno 23 33 1019 vento: Nord E/NE 7.4
16 Maggio 2022 14:00 tempo osservato: Sereno Sereno 23 31 1019 vento: Nord N 3.7
16 Maggio 2022 13:30 tempo osservato: Sereno Sereno 23 31 1019 vento: Nord NE 7.4
16 Maggio 2022 13:00 tempo osservato: Sereno Sereno 22 37 1020 vento: Nord N 7.4
16 Maggio 2022 12:30 tempo osservato: Sereno Sereno 21 43 1020 vento: Nord N 7.4
16 Maggio 2022 12:00 tempo osservato: Sereno Sereno 21 43 1020 vento: Nord NE 7.4
16 Maggio 2022 11:30 tempo osservato: Sereno Sereno 21 40 1020 vento: Nord N 7.4
16 Maggio 2022 11:00 tempo osservato: Sereno Sereno 20 39 1020 vento: Nord N 9.3
16 Maggio 2022 10:30 tempo osservato: Sereno Sereno 19 52 1020 vento: Nord N/NE 9.3
16 Maggio 2022 10:00 tempo osservato: Sereno Sereno 18 55 1020 vento: Nord N/NE 9.3
16 Maggio 2022 09:30 tempo osservato: Sereno Sereno 17 59 1020 vento: Nord N 5.5
16 Maggio 2022 09:00 tempo osservato: Sereno Sereno 15 67 1020 vento: Nord N 3.7
16 Maggio 2022 08:30 tempo osservato: Sereno Sereno 14 71 1020 vento: Nord N 3.7
16 Maggio 2022 08:00 tempo osservato: Sereno Sereno 12 76 1020 vento: Nord N 1.8
16 Maggio 2022 07:30 tempo osservato: Sereno Sereno 11 87 1020 vento: Nord N 3.7
16 Maggio 2022 07:00 tempo osservato: Sereno Sereno 9 93 1020 vento: Nord N 3.7